sensor_id;sensor_type;location;lat;lon;timestamp;P1;durP1;ratioP1;P2;durP2;ratioP2
60306;SDS011;46155;52.364;6.580;2024-03-22T04:02:54;63.13;;;50.53;;
60306;SDS011;46155;52.364;6.580;2024-03-22T04:05:19;56.00;;;49.93;;
60306;SDS011;46155;52.364;6.580;2024-03-22T04:07:48;56.73;;;50.93;;
60306;SDS011;46155;52.364;6.580;2024-03-22T04:10:14;58.47;;;51.73;;
60306;SDS011;46155;52.364;6.580;2024-03-22T04:12:39;58.47;;;51.57;;
60306;SDS011;46155;52.364;6.580;2024-03-22T04:15:04;61.60;;;52.27;;
60306;SDS011;46155;52.364;6.580;2024-03-22T04:17:30;68.73;;;53.30;;
60306;SDS011;46155;52.364;6.580;2024-03-22T04:19:56;69.40;;;49.70;;
60306;SDS011;46155;52.364;6.580;2024-03-22T04:22:21;57.93;;;52.10;;
60306;SDS011;46155;52.364;6.580;2024-03-22T04:24:46;54.47;;;47.13;;
60306;SDS011;46155;52.364;6.580;2024-03-22T04:27:11;58.07;;;52.13;;
60306;SDS011;46155;52.364;6.580;2024-03-22T04:29:37;58.47;;;52.23;;
60306;SDS011;46155;52.364;6.580;2024-03-22T04:32:02;59.53;;;53.03;;
60306;SDS011;46155;52.364;6.580;2024-03-22T04:34:27;67.83;;;54.90;;
60306;SDS011;46155;52.364;6.580;2024-03-22T04:36:53;61.70;;;49.30;;
60306;SDS011;46155;52.364;6.580;2024-03-22T04:39:22;57.87;;;51.80;;
60306;SDS011;46155;52.364;6.580;2024-03-22T04:41:47;60.40;;;50.07;;
60306;SDS011;46155;52.364;6.580;2024-03-22T04:44:13;61.03;;;54.50;;
60306;SDS011;46155;52.364;6.580;2024-03-22T04:46:38;78.03;;;53.13;;
60306;SDS011;46155;52.364;6.580;2024-03-22T04:49:03;58.27;;;50.70;;
60306;SDS011;46155;52.364;6.580;2024-03-22T04:51:28;72.68;;;65.25;;
60306;SDS011;46155;52.364;6.580;2024-03-22T04:53:54;79.87;;;50.53;;
60306;SDS011;46155;52.364;6.580;2024-03-22T04:56:19;51.93;;;46.80;;
60306;SDS011;46155;52.364;6.580;2024-03-22T04:58:44;53.07;;;47.77;;
60306;SDS011;46155;52.364;6.580;2024-03-22T05:01:09;54.47;;;47.20;;
60306;SDS011;46155;52.364;6.580;2024-03-22T05:03:37;52.87;;;47.20;;
60306;SDS011;46155;52.364;6.580;2024-03-22T05:06:03;53.37;;;46.00;;
60306;SDS011;46155;52.364;6.580;2024-03-22T05:08:28;54.50;;;48.23;;
60306;SDS011;46155;52.364;6.580;2024-03-22T05:10:54;52.70;;;46.50;;
60306;SDS011;46155;52.364;6.580;2024-03-22T05:13:19;60.00;;;49.20;;
60306;SDS011;46155;52.364;6.580;2024-03-22T05:15:44;60.60;;;54.53;;
60306;SDS011;46155;52.364;6.580;2024-03-22T05:18:09;55.90;;;48.23;;
60306;SDS011;46155;52.364;6.580;2024-03-22T05:20:35;53.67;;;47.20;;
60306;SDS011;46155;52.364;6.580;2024-03-22T05:23:00;52.93;;;47.07;;
60306;SDS011;46155;52.364;6.580;2024-03-22T05:25:25;53.43;;;47.83;;
60306;SDS011;46155;52.364;6.580;2024-03-22T05:27:51;58.93;;;47.70;;
60306;SDS011;46155;52.364;6.580;2024-03-22T05:30:17;54.03;;;48.43;;
60306;SDS011;46155;52.364;6.580;2024-03-22T05:32:42;52.50;;;47.00;;
60306;SDS011;46155;52.364;6.580;2024-03-22T05:35:08;52.10;;;46.20;;
60306;SDS011;46155;52.364;6.580;2024-03-22T05:37:34;67.70;;;49.50;;
60306;SDS011;46155;52.364;6.580;2024-03-22T05:39:59;54.97;;;46.20;;
60306;SDS011;46155;52.364;6.580;2024-03-22T05:42:25;53.50;;;47.80;;
60306;SDS011;46155;52.364;6.580;2024-03-22T05:44:51;54.17;;;44.17;;
60306;SDS011;46155;52.364;6.580;2024-03-22T05:47:17;48.47;;;43.70;;
60306;SDS011;46155;52.364;6.580;2024-03-22T05:49:43;60.80;;;43.47;;
60306;SDS011;46155;52.364;6.580;2024-03-22T05:52:09;47.73;;;43.00;;
60306;SDS011;46155;52.364;6.580;2024-03-22T05:54:34;57.97;;;44.63;;
60306;SDS011;46155;52.364;6.580;2024-03-22T05:57:00;56.60;;;44.27;;
60306;SDS011;46155;52.364;6.580;2024-03-22T05:59:25;43.17;;;38.67;;
60306;SDS011;46155;52.364;6.580;2024-03-22T06:01:52;58.40;;;44.33;;
60306;SDS011;46155;52.364;6.580;2024-03-22T06:04:17;48.33;;;37.23;;
60306;SDS011;46155;52.364;6.580;2024-03-22T06:06:43;44.27;;;36.07;;
60306;SDS011;46155;52.364;6.580;2024-03-22T06:09:08;41.50;;;34.23;;
60306;SDS011;46155;52.364;6.580;2024-03-22T06:11:36;41.80;;;34.00;;
60306;SDS011;46155;52.364;6.580;2024-03-22T06:14:01;54.60;;;35.63;;
60306;SDS011;46155;52.364;6.580;2024-03-22T06:16:26;54.93;;;33.20;;
60306;SDS011;46155;52.364;6.580;2024-03-22T06:18:52;41.10;;;34.40;;
60306;SDS011;46155;52.364;6.580;2024-03-22T06:21:17;60.50;;;34.33;;
60306;SDS011;46155;52.364;6.580;2024-03-22T06:23:50;46.13;;;32.53;;
60306;SDS011;46155;52.364;6.580;2024-03-22T06:26:16;42.70;;;33.20;;
60306;SDS011;46155;52.364;6.580;2024-03-22T06:28:42;48.70;;;33.30;;
60306;SDS011;46155;52.364;6.580;2024-03-22T06:31:07;43.50;;;32.37;;
60306;SDS011;46155;52.364;6.580;2024-03-22T06:33:33;36.37;;;31.93;;
60306;SDS011;46155;52.364;6.580;2024-03-22T06:35:58;40.13;;;31.47;;
60306;SDS011;46155;52.364;6.580;2024-03-22T06:38:24;52.27;;;34.93;;
60306;SDS011;46155;52.364;6.580;2024-03-22T06:40:50;46.40;;;32.17;;
60306;SDS011;46155;52.364;6.580;2024-03-22T06:43:15;46.57;;;31.70;;
60306;SDS011;46155;52.364;6.580;2024-03-22T06:45:40;41.50;;;30.37;;
60306;SDS011;46155;52.364;6.580;2024-03-22T06:48:06;51.90;;;31.40;;
60306;SDS011;46155;52.364;6.580;2024-03-22T06:50:31;44.30;;;29.23;;
60306;SDS011;46155;52.364;6.580;2024-03-22T06:52:56;36.10;;;28.30;;
60306;SDS011;46155;52.364;6.580;2024-03-22T06:55:21;59.77;;;31.97;;
60306;SDS011;46155;52.364;6.580;2024-03-22T06:57:47;36.83;;;30.03;;
60306;SDS011;46155;52.364;6.580;2024-03-22T07:00:14;50.17;;;34.10;;
60306;SDS011;46155;52.364;6.580;2024-03-22T07:02:40;42.53;;;31.67;;
60306;SDS011;46155;52.364;6.580;2024-03-22T07:05:08;45.70;;;32.90;;
60306;SDS011;46155;52.364;6.580;2024-03-22T07:07:34;42.17;;;31.53;;
60306;SDS011;46155;52.364;6.580;2024-03-22T07:10:00;48.77;;;34.00;;
60306;SDS011;46155;52.364;6.580;2024-03-22T07:12:25;44.47;;;31.93;;
60306;SDS011;46155;52.364;6.580;2024-03-22T07:14:51;50.90;;;33.37;;
60306;SDS011;46155;52.364;6.580;2024-03-22T07:17:16;43.70;;;30.20;;
60306;SDS011;46155;52.364;6.580;2024-03-22T07:19:41;43.90;;;30.37;;
60306;SDS011;46155;52.364;6.580;2024-03-22T07:22:07;40.27;;;29.80;;
60306;SDS011;46155;52.364;6.580;2024-03-22T07:24:33;37.33;;;30.93;;
60306;SDS011;46155;52.364;6.580;2024-03-22T07:26:58;44.27;;;31.63;;
60306;SDS011;46155;52.364;6.580;2024-03-22T07:29:23;40.77;;;32.00;;
60306;SDS011;46155;52.364;6.580;2024-03-22T07:31:48;36.77;;;28.17;;
60306;SDS011;46155;52.364;6.580;2024-03-22T07:34:14;40.20;;;29.17;;
60306;SDS011;46155;52.364;6.580;2024-03-22T07:36:40;40.10;;;29.50;;
60306;SDS011;46155;52.364;6.580;2024-03-22T07:39:05;40.67;;;31.20;;
60306;SDS011;46155;52.364;6.580;2024-03-22T07:41:34;35.97;;;29.70;;
60306;SDS011;46155;52.364;6.580;2024-03-22T07:44:00;40.83;;;28.10;;
60306;SDS011;46155;52.364;6.580;2024-03-22T07:46:26;31.50;;;27.83;;
60306;SDS011;46155;52.364;6.580;2024-03-22T07:48:51;38.63;;;27.07;;
60306;SDS011;46155;52.364;6.580;2024-03-22T07:51:17;58.40;;;30.13;;
60306;SDS011;46155;52.364;6.580;2024-03-22T07:53:43;45.53;;;29.23;;
60306;SDS011;46155;52.364;6.580;2024-03-22T07:56:08;39.23;;;26.77;;
60306;SDS011;46155;52.364;6.580;2024-03-22T07:58:33;43.33;;;28.07;;
60306;SDS011;46155;52.364;6.580;2024-03-22T08:00:58;48.97;;;29.10;;
60306;SDS011;46155;52.364;6.580;2024-03-22T08:03:24;43.57;;;28.27;;
60306;SDS011;46155;52.364;6.580;2024-03-22T08:05:49;36.63;;;26.30;;
60306;SDS011;46155;52.364;6.580;2024-03-22T08:08:14;40.90;;;25.57;;
60306;SDS011;46155;52.364;6.580;2024-03-22T08:10:40;38.20;;;27.30;;
60306;SDS011;46155;52.364;6.580;2024-03-22T08:13:05;33.67;;;24.90;;
60306;SDS011;46155;52.364;6.580;2024-03-22T08:15:30;48.40;;;29.00;;
60306;SDS011;46155;52.364;6.580;2024-03-22T08:17:56;37.27;;;26.97;;
60306;SDS011;46155;52.364;6.580;2024-03-22T08:20:24;36.87;;;29.60;;
60306;SDS011;46155;52.364;6.580;2024-03-22T08:22:49;41.93;;;28.87;;
60306;SDS011;46155;52.364;6.580;2024-03-22T08:25:14;33.00;;;25.90;;
60306;SDS011;46155;52.364;6.580;2024-03-22T08:27:42;40.83;;;27.17;;
60306;SDS011;46155;52.364;6.580;2024-03-22T08:30:08;44.37;;;27.87;;
60306;SDS011;46155;52.364;6.580;2024-03-22T08:32:34;42.03;;;27.63;;
60306;SDS011;46155;52.364;6.580;2024-03-22T08:35:00;48.30;;;28.03;;
60306;SDS011;46155;52.364;6.580;2024-03-22T08:37:25;36.13;;;25.90;;
60306;SDS011;46155;52.364;6.580;2024-03-22T08:39:51;41.43;;;28.20;;
60306;SDS011;46155;52.364;6.580;2024-03-22T08:42:16;38.30;;;27.33;;
60306;SDS011;46155;52.364;6.580;2024-03-22T08:44:41;54.67;;;29.63;;
60306;SDS011;46155;52.364;6.580;2024-03-22T08:47:07;33.00;;;25.87;;
60306;SDS011;46155;52.364;6.580;2024-03-22T08:49:33;48.43;;;29.63;;
60306;SDS011;46155;52.364;6.580;2024-03-22T08:52:01;28.43;;;23.77;;
60306;SDS011;46155;52.364;6.580;2024-03-22T08:54:27;33.97;;;26.07;;
60306;SDS011;46155;52.364;6.580;2024-03-22T08:56:52;35.10;;;24.23;;
60306;SDS011;46155;52.364;6.580;2024-03-22T08:59:17;39.87;;;24.93;;
60306;SDS011;46155;52.364;6.580;2024-03-22T09:01:43;31.73;;;25.73;;
60306;SDS011;46155;52.364;6.580;2024-03-22T09:04:08;39.83;;;24.10;;
60306;SDS011;46155;52.364;6.580;2024-03-22T09:06:33;28.20;;;22.43;;
60306;SDS011;46155;52.364;6.580;2024-03-22T09:09:00;28.87;;;23.50;;
60306;SDS011;46155;52.364;6.580;2024-03-22T09:11:25;32.93;;;24.00;;
60306;SDS011;46155;52.364;6.580;2024-03-22T09:13:51;33.90;;;24.47;;
60306;SDS011;46155;52.364;6.580;2024-03-22T09:16:17;37.77;;;24.23;;
60306;SDS011;46155;52.364;6.580;2024-03-22T09:18:43;32.50;;;23.90;;
60306;SDS011;46155;52.364;6.580;2024-03-22T09:21:08;31.97;;;22.00;;
60306;SDS011;46155;52.364;6.580;2024-03-22T09:23:35;31.63;;;22.13;;
60306;SDS011;46155;52.364;6.580;2024-03-22T09:26:01;27.00;;;22.67;;
60306;SDS011;46155;52.364;6.580;2024-03-22T09:28:26;34.43;;;24.03;;
60306;SDS011;46155;52.364;6.580;2024-03-22T09:30:51;28.73;;;24.03;;
60306;SDS011;46155;52.364;6.580;2024-03-22T09:33:16;43.13;;;22.50;;
60306;SDS011;46155;52.364;6.580;2024-03-22T09:35:43;24.90;;;22.20;;
60306;SDS011;46155;52.364;6.580;2024-03-22T09:38:08;33.87;;;23.37;;
60306;SDS011;46155;52.364;6.580;2024-03-22T09:40:34;42.47;;;24.60;;
60306;SDS011;46155;52.364;6.580;2024-03-22T09:43:01;28.30;;;24.17;;
60306;SDS011;46155;52.364;6.580;2024-03-22T09:45:30;37.70;;;27.70;;
60306;SDS011;46155;52.364;6.580;2024-03-22T09:47:56;31.07;;;27.77;;
60306;SDS011;46155;52.364;6.580;2024-03-22T09:50:22;33.60;;;30.47;;
60306;SDS011;46155;52.364;6.580;2024-03-22T09:52:48;33.57;;;29.67;;
60306;SDS011;46155;52.364;6.580;2024-03-22T09:55:13;31.37;;;28.37;;
60306;SDS011;46155;52.364;6.580;2024-03-22T09:57:39;30.00;;;27.17;;
60306;SDS011;46155;52.364;6.580;2024-03-22T10:00:06;40.03;;;29.70;;
60306;SDS011;46155;52.364;6.580;2024-03-22T10:02:33;32.57;;;29.43;;
60306;SDS011;46155;52.364;6.580;2024-03-22T10:04:59;32.03;;;29.13;;
60306;SDS011;46155;52.364;6.580;2024-03-22T10:07:24;32.93;;;29.60;;
60306;SDS011;46155;52.364;6.580;2024-03-22T10:09:51;29.87;;;27.17;;
60306;SDS011;46155;52.364;6.580;2024-03-22T10:12:17;33.93;;;30.53;;
60306;SDS011;46155;52.364;6.580;2024-03-22T10:14:43;32.97;;;29.93;;
60306;SDS011;46155;52.364;6.580;2024-03-22T10:17:09;34.23;;;30.77;;
60306;SDS011;46155;52.364;6.580;2024-03-22T10:19:34;37.73;;;33.73;;
60306;SDS011;46155;52.364;6.580;2024-03-22T10:22:00;36.23;;;32.87;;
60306;SDS011;46155;52.364;6.580;2024-03-22T10:24:29;35.53;;;31.53;;
60306;SDS011;46155;52.364;6.580;2024-03-22T10:26:55;36.80;;;33.80;;
60306;SDS011;46155;52.364;6.580;2024-03-22T10:29:21;39.27;;;35.57;;
60306;SDS011;46155;52.364;6.580;2024-03-22T10:31:50;41.17;;;37.53;;
60306;SDS011;46155;52.364;6.580;2024-03-22T10:34:17;37.27;;;34.40;;
60306;SDS011;46155;52.364;6.580;2024-03-22T10:36:43;42.37;;;38.77;;
60306;SDS011;46155;52.364;6.580;2024-03-22T10:39:09;42.23;;;38.47;;
60306;SDS011;46155;52.364;6.580;2024-03-22T10:41:37;40.27;;;36.77;;
60306;SDS011;46155;52.364;6.580;2024-03-22T10:44:03;37.67;;;34.60;;
60306;SDS011;46155;52.364;6.580;2024-03-22T10:46:30;36.87;;;33.73;;
60306;SDS011;46155;52.364;6.580;2024-03-22T10:48:55;39.07;;;35.73;;
60306;SDS011;46155;52.364;6.580;2024-03-22T10:51:21;42.37;;;38.73;;
60306;SDS011;46155;52.364;6.580;2024-03-22T10:53:49;43.33;;;39.53;;
60306;SDS011;46155;52.364;6.580;2024-03-22T10:56:16;40.40;;;36.90;;
60306;SDS011;46155;52.364;6.580;2024-03-22T10:58:43;36.97;;;34.23;;
60306;SDS011;46155;52.364;6.580;2024-03-22T11:01:21;36.57;;;33.53;;
60306;SDS011;46155;52.364;6.580;2024-03-22T11:03:47;39.20;;;36.07;;
60306;SDS011;46155;52.364;6.580;2024-03-22T11:06:12;38.20;;;35.47;;
60306;SDS011;46155;52.364;6.580;2024-03-22T11:08:38;36.00;;;33.03;;
60306;SDS011;46155;52.364;6.580;2024-03-22T11:11:12;40.00;;;37.17;;
60306;SDS011;46155;52.364;6.580;2024-03-22T11:13:40;42.33;;;39.10;;
60306;SDS011;46155;52.364;6.580;2024-03-22T11:16:06;39.83;;;36.97;;
60306;SDS011;46155;52.364;6.580;2024-03-22T11:18:33;34.90;;;32.53;;
60306;SDS011;46155;52.364;6.580;2024-03-22T11:20:59;36.67;;;33.83;;
60306;SDS011;46155;52.364;6.580;2024-03-22T11:23:24;40.03;;;36.87;;
60306;SDS011;46155;52.364;6.580;2024-03-22T11:25:50;40.67;;;37.60;;
60306;SDS011;46155;52.364;6.580;2024-03-22T11:28:16;38.67;;;35.83;;
60306;SDS011;46155;52.364;6.580;2024-03-22T11:30:41;37.80;;;35.27;;
60306;SDS011;46155;52.364;6.580;2024-03-22T11:33:06;35.27;;;33.27;;
60306;SDS011;46155;52.364;6.580;2024-03-22T11:35:33;37.83;;;35.30;;
60306;SDS011;46155;52.364;6.580;2024-03-22T11:37:59;37.17;;;34.23;;
60306;SDS011;46155;52.364;6.580;2024-03-22T11:40:27;34.40;;;32.27;;
60306;SDS011;46155;52.364;6.580;2024-03-22T11:42:55;36.97;;;34.47;;
60306;SDS011;46155;52.364;6.580;2024-03-22T11:45:22;40.73;;;38.23;;
60306;SDS011;46155;52.364;6.580;2024-03-22T11:47:48;38.23;;;35.90;;
60306;SDS011;46155;52.364;6.580;2024-03-22T11:50:14;36.87;;;34.30;;
60306;SDS011;46155;52.364;6.580;2024-03-22T11:52:43;38.93;;;36.43;;
60306;SDS011;46155;52.364;6.580;2024-03-22T11:55:10;34.47;;;32.37;;
60306;SDS011;46155;52.364;6.580;2024-03-22T11:57:35;37.67;;;35.47;;
60306;SDS011;46155;52.364;6.580;2024-03-22T12:00:02;36.93;;;34.73;;
60306;SDS011;46155;52.364;6.580;2024-03-22T12:02:31;37.23;;;34.70;;
60306;SDS011;46155;52.364;6.580;2024-03-22T12:04:57;38.57;;;36.20;;
60306;SDS011;46155;52.364;6.580;2024-03-22T12:07:23;39.67;;;37.57;;
60306;SDS011;46155;52.364;6.580;2024-03-22T12:09:48;38.13;;;35.80;;
60306;SDS011;46155;52.364;6.580;2024-03-22T12:12:14;36.03;;;33.97;;
60306;SDS011;46155;52.364;6.580;2024-03-22T12:14:39;36.43;;;34.33;;
60306;SDS011;46155;52.364;6.580;2024-03-22T12:17:05;37.70;;;35.40;;
60306;SDS011;46155;52.364;6.580;2024-03-22T12:19:31;38.97;;;36.53;;
60306;SDS011;46155;52.364;6.580;2024-03-22T12:21:57;35.67;;;33.67;;
60306;SDS011;46155;52.364;6.580;2024-03-22T12:24:22;34.60;;;32.73;;
60306;SDS011;46155;52.364;6.580;2024-03-22T12:26:48;34.63;;;32.77;;
60306;SDS011;46155;52.364;6.580;2024-03-22T12:29:15;37.33;;;35.27;;
60306;SDS011;46155;52.364;6.580;2024-03-22T12:31:41;33.57;;;31.53;;
60306;SDS011;46155;52.364;6.580;2024-03-22T12:34:07;34.03;;;32.10;;
60306;SDS011;46155;52.364;6.580;2024-03-22T12:36:33;33.57;;;31.47;;
60306;SDS011;46155;52.364;6.580;2024-03-22T12:38:58;34.57;;;32.67;;
60306;SDS011;46155;52.364;6.580;2024-03-22T12:41:24;37.83;;;35.73;;
60306;SDS011;46155;52.364;6.580;2024-03-22T12:43:50;37.63;;;35.53;;
60306;SDS011;46155;52.364;6.580;2024-03-22T12:46:15;37.17;;;35.17;;
60306;SDS011;46155;52.364;6.580;2024-03-22T12:48:40;37.23;;;35.23;;
60306;SDS011;46155;52.364;6.580;2024-03-22T12:51:06;38.63;;;36.60;;
60306;SDS011;46155;52.364;6.580;2024-03-22T12:53:32;39.20;;;37.10;;
60306;SDS011;46155;52.364;6.580;2024-03-22T12:55:57;36.37;;;34.47;;
60306;SDS011;46155;52.364;6.580;2024-03-22T12:58:22;39.03;;;37.03;;
60306;SDS011;46155;52.364;6.580;2024-03-22T13:00:48;40.33;;;38.33;;
60306;SDS011;46155;52.364;6.580;2024-03-22T13:03:13;40.23;;;38.13;;
60306;SDS011;46155;52.364;6.580;2024-03-22T13:05:40;39.67;;;37.50;;
60306;SDS011;46155;52.364;6.580;2024-03-22T13:08:06;40.10;;;37.80;;
60306;SDS011;46155;52.364;6.580;2024-03-22T13:10:32;40.80;;;38.73;;
60306;SDS011;46155;52.364;6.580;2024-03-22T13:12:57;40.63;;;38.53;;
60306;SDS011;46155;52.364;6.580;2024-03-22T13:15:22;41.50;;;39.33;;
60306;SDS011;46155;52.364;6.580;2024-03-22T13:17:48;42.40;;;40.30;;
60306;SDS011;46155;52.364;6.580;2024-03-22T13:20:13;41.93;;;39.83;;
60306;SDS011;46155;52.364;6.580;2024-03-22T13:22:40;43.87;;;41.53;;
60306;SDS011;46155;52.364;6.580;2024-03-22T13:25:06;42.90;;;40.70;;
60306;SDS011;46155;52.364;6.580;2024-03-22T13:27:34;45.53;;;42.03;;
60306;SDS011;46155;52.364;6.580;2024-03-22T13:30:00;43.43;;;41.27;;
60306;SDS011;46155;52.364;6.580;2024-03-22T13:32:26;45.10;;;42.80;;
60306;SDS011;46155;52.364;6.580;2024-03-22T13:34:52;46.83;;;44.53;;
60306;SDS011;46155;52.364;6.580;2024-03-22T13:37:17;46.03;;;43.73;;
60306;SDS011;46155;52.364;6.580;2024-03-22T13:39:42;45.77;;;43.53;;
60306;SDS011;46155;52.364;6.580;2024-03-22T13:42:08;43.67;;;41.50;;
60306;SDS011;46155;52.364;6.580;2024-03-22T13:44:34;43.93;;;41.63;;
60306;SDS011;46155;52.364;6.580;2024-03-22T13:46:59;44.73;;;42.57;;
60306;SDS011;46155;52.364;6.580;2024-03-22T13:49:24;45.43;;;43.13;;
60306;SDS011;46155;52.364;6.580;2024-03-22T13:51:50;44.23;;;42.13;;
60306;SDS011;46155;52.364;6.580;2024-03-22T13:54:15;44.50;;;42.30;;
60306;SDS011;46155;52.364;6.580;2024-03-22T13:56:41;44.57;;;42.47;;
60306;SDS011;46155;52.364;6.580;2024-03-22T13:59:07;47.53;;;45.10;;
60306;SDS011;46155;52.364;6.580;2024-03-22T14:01:36;48.20;;;45.90;;
60306;SDS011;46155;52.364;6.580;2024-03-22T14:04:02;47.83;;;45.53;;
60306;SDS011;46155;52.364;6.580;2024-03-22T14:06:29;44.90;;;42.70;;
60306;SDS011;46155;52.364;6.580;2024-03-22T14:08:55;45.80;;;43.60;;
60306;SDS011;46155;52.364;6.580;2024-03-22T14:11:25;43.90;;;41.83;;
60306;SDS011;46155;52.364;6.580;2024-03-22T14:13:50;43.43;;;41.23;;
60306;SDS011;46155;52.364;6.580;2024-03-22T14:16:16;47.63;;;45.37;;
60306;SDS011;46155;52.364;6.580;2024-03-22T14:18:42;46.33;;;44.03;;
60306;SDS011;46155;52.364;6.580;2024-03-22T14:21:07;47.77;;;45.47;;
60306;SDS011;46155;52.364;6.580;2024-03-22T14:23:32;33.93;;;32.27;;
60306;SDS011;46155;52.364;6.580;2024-03-22T14:25:57;36.57;;;34.47;;
60306;SDS011;46155;52.364;6.580;2024-03-22T14:28:23;38.50;;;36.40;;
60306;SDS011;46155;52.364;6.580;2024-03-22T14:30:48;35.37;;;33.37;;
60306;SDS011;46155;52.364;6.580;2024-03-22T14:33:13;38.60;;;36.40;;
60306;SDS011;46155;52.364;6.580;2024-03-22T14:35:39;37.03;;;34.93;;
60306;SDS011;46155;52.364;6.580;2024-03-22T14:38:04;39.50;;;37.47;;
60306;SDS011;46155;52.364;6.580;2024-03-22T14:40:29;39.87;;;37.47;;
60306;SDS011;46155;52.364;6.580;2024-03-22T14:42:56;39.60;;;37.50;;
60306;SDS011;46155;52.364;6.580;2024-03-22T14:45:22;40.07;;;37.93;;
60306;SDS011;46155;52.364;6.580;2024-03-22T14:47:47;41.53;;;39.03;;
60306;SDS011;46155;52.364;6.580;2024-03-22T14:50:12;40.23;;;37.83;;
60306;SDS011;46155;52.364;6.580;2024-03-22T14:52:38;35.27;;;33.37;;
60306;SDS011;46155;52.364;6.580;2024-03-22T14:55:04;41.03;;;38.50;;
60306;SDS011;46155;52.364;6.580;2024-03-22T14:57:30;42.67;;;39.93;;
60306;SDS011;46155;52.364;6.580;2024-03-22T14:59:55;40.77;;;38.57;;
60306;SDS011;46155;52.364;6.580;2024-03-22T15:02:20;37.47;;;35.03;;
60306;SDS011;46155;52.364;6.580;2024-03-22T15:04:46;39.33;;;36.93;;
60306;SDS011;46155;52.364;6.580;2024-03-22T15:07:11;38.37;;;36.10;;
60306;SDS011;46155;52.364;6.580;2024-03-22T15:09:36;34.53;;;32.53;;
60306;SDS011;46155;52.364;6.580;2024-03-22T15:12:02;30.70;;;28.70;;
60306;SDS011;46155;52.364;6.580;2024-03-22T15:14:27;36.53;;;34.43;;
60306;SDS011;46155;52.364;6.580;2024-03-22T15:16:56;32.77;;;30.67;;
60306;SDS011;46155;52.364;6.580;2024-03-22T15:19:21;33.40;;;31.10;;
60306;SDS011;46155;52.364;6.580;2024-03-22T15:21:47;34.80;;;32.03;;
60306;SDS011;46155;52.364;6.580;2024-03-22T15:24:12;34.10;;;31.87;;
60306;SDS011;46155;52.364;6.580;2024-03-22T15:26:38;32.33;;;30.00;;
60306;SDS011;46155;52.364;6.580;2024-03-22T15:29:03;35.83;;;33.33;;
60306;SDS011;46155;52.364;6.580;2024-03-22T15:31:31;33.23;;;30.33;;
60306;SDS011;46155;52.364;6.580;2024-03-22T15:33:56;33.50;;;31.60;;
60306;SDS011;46155;52.364;6.580;2024-03-22T15:36:21;34.27;;;31.87;;
60306;SDS011;46155;52.364;6.580;2024-03-22T15:38:47;34.77;;;32.60;;
60306;SDS011;46155;52.364;6.580;2024-03-22T15:41:12;31.17;;;29.07;;
60306;SDS011;46155;52.364;6.580;2024-03-22T15:43:39;26.70;;;24.43;;
60306;SDS011;46155;52.364;6.580;2024-03-22T15:46:04;26.13;;;23.50;;
60306;SDS011;46155;52.364;6.580;2024-03-22T15:48:30;27.13;;;25.30;;
60306;SDS011;46155;52.364;6.580;2024-03-22T15:50:55;24.20;;;22.20;;
60306;SDS011;46155;52.364;6.580;2024-03-22T15:53:21;25.00;;;22.80;;
60306;SDS011;46155;52.364;6.580;2024-03-22T15:55:46;23.57;;;21.83;;
60306;SDS011;46155;52.364;6.580;2024-03-22T15:58:12;25.27;;;22.53;;
60306;SDS011;46155;52.364;6.580;2024-03-22T16:00:38;26.27;;;23.83;;
60306;SDS011;46155;52.364;6.580;2024-03-22T16:03:03;24.97;;;22.73;;
60306;SDS011;46155;52.364;6.580;2024-03-22T16:05:30;27.83;;;25.37;;
60306;SDS011;46155;52.364;6.580;2024-03-22T16:07:55;25.57;;;23.70;;
60306;SDS011;46155;52.364;6.580;2024-03-22T16:10:21;27.13;;;25.10;;
60306;SDS011;46155;52.364;6.580;2024-03-22T16:12:46;25.43;;;23.73;;
60306;SDS011;46155;52.364;6.580;2024-03-22T16:15:11;28.03;;;25.63;;
60306;SDS011;46155;52.364;6.580;2024-03-22T16:17:37;29.23;;;27.23;;
60306;SDS011;46155;52.364;6.580;2024-03-22T16:20:02;26.07;;;24.07;;
60306;SDS011;46155;52.364;6.580;2024-03-22T16:22:28;28.70;;;26.73;;
60306;SDS011;46155;52.364;6.580;2024-03-22T16:24:53;28.97;;;26.40;;
60306;SDS011;46155;52.364;6.580;2024-03-22T16:27:20;25.70;;;23.43;;
60306;SDS011;46155;52.364;6.580;2024-03-22T16:29:49;26.73;;;24.37;;
60306;SDS011;46155;52.364;6.580;2024-03-22T16:32:14;23.67;;;22.17;;
60306;SDS011;46155;52.364;6.580;2024-03-22T16:34:40;27.93;;;25.50;;
60306;SDS011;46155;52.364;6.580;2024-03-22T16:37:05;27.50;;;25.23;;
60306;SDS011;46155;52.364;6.580;2024-03-22T16:39:31;31.57;;;28.90;;
60306;SDS011;46155;52.364;6.580;2024-03-22T16:41:57;26.37;;;24.40;;
60306;SDS011;46155;52.364;6.580;2024-03-22T16:44:22;32.30;;;29.97;;
60306;SDS011;46155;52.364;6.580;2024-03-22T16:46:47;39.47;;;36.67;;
60306;SDS011;46155;52.364;6.580;2024-03-22T16:49:13;37.40;;;34.80;;
60306;SDS011;46155;52.364;6.580;2024-03-22T16:51:38;32.17;;;29.97;;
60306;SDS011;46155;52.364;6.580;2024-03-22T16:54:04;30.20;;;28.20;;
60306;SDS011;46155;52.364;6.580;2024-03-22T16:56:32;26.83;;;24.73;;
60306;SDS011;46155;52.364;6.580;2024-03-22T16:58:58;26.40;;;24.10;;
60306;SDS011;46155;52.364;6.580;2024-03-22T17:01:23;26.47;;;24.57;;
60306;SDS011;46155;52.364;6.580;2024-03-22T17:03:48;25.27;;;23.30;;
60306;SDS011;46155;52.364;6.580;2024-03-22T17:06:14;27.60;;;25.53;;
60306;SDS011;46155;52.364;6.580;2024-03-22T17:08:39;27.27;;;25.10;;
60306;SDS011;46155;52.364;6.580;2024-03-22T17:11:05;23.87;;;22.20;;
60306;SDS011;46155;52.364;6.580;2024-03-22T17:13:30;25.67;;;24.03;;
60306;SDS011;46155;52.364;6.580;2024-03-22T17:15:56;27.80;;;24.67;;
60306;SDS011;46155;52.364;6.580;2024-03-22T17:18:23;25.83;;;23.80;;
60306;SDS011;46155;52.364;6.580;2024-03-22T17:20:48;27.10;;;24.93;;
60306;SDS011;46155;52.364;6.580;2024-03-22T17:23:14;27.27;;;25.30;;
60306;SDS011;46155;52.364;6.580;2024-03-22T17:25:39;27.00;;;25.00;;
60306;SDS011;46155;52.364;6.580;2024-03-22T17:28:06;29.60;;;26.83;;
60306;SDS011;46155;52.364;6.580;2024-03-22T17:30:32;29.27;;;26.87;;
60306;SDS011;46155;52.364;6.580;2024-03-22T17:32:57;28.80;;;26.97;;
60306;SDS011;46155;52.364;6.580;2024-03-22T17:35:23;30.70;;;27.60;;
60306;SDS011;46155;52.364;6.580;2024-03-22T17:37:48;33.00;;;30.50;;
60306;SDS011;46155;52.364;6.580;2024-03-22T17:40:13;31.40;;;28.30;;
60306;SDS011;46155;52.364;6.580;2024-03-22T17:42:40;37.27;;;31.47;;
60306;SDS011;46155;52.364;6.580;2024-03-22T17:45:06;31.87;;;29.73;;
60306;SDS011;46155;52.364;6.580;2024-03-22T17:47:32;30.47;;;28.30;;
60306;SDS011;46155;52.364;6.580;2024-03-22T17:49:57;30.83;;;28.93;;
60306;SDS011;46155;52.364;6.580;2024-03-22T17:52:24;31.67;;;29.60;;
60306;SDS011;46155;52.364;6.580;2024-03-22T17:54:50;36.15;;;33.67;;
60306;SDS011;46155;52.364;6.580;2024-03-22T17:57:16;32.93;;;30.23;;
60306;SDS011;46155;52.364;6.580;2024-03-22T17:59:42;32.20;;;29.17;;
60306;SDS011;46155;52.364;6.580;2024-03-22T18:02:07;30.30;;;27.87;;
60306;SDS011;46155;52.364;6.580;2024-03-22T18:04:33;29.70;;;27.87;;
60306;SDS011;46155;52.364;6.580;2024-03-22T18:06:58;29.27;;;27.13;;
60306;SDS011;46155;52.364;6.580;2024-03-22T18:09:24;31.40;;;28.63;;
60306;SDS011;46155;52.364;6.580;2024-03-22T18:11:49;32.10;;;29.83;;
60306;SDS011;46155;52.364;6.580;2024-03-22T18:14:15;31.90;;;29.27;;